ROK weather

Rockhampton Airport
Rockhampton, Queensland, Australia

Public forecast

Using degrees Celsius for public forecast. Weather courtesy of forecast.io.

METAR (pilot weather report)

Retrieved 2017/08/16 20:33 UTC (24 minutes ago):

YBRK 162033Z AUTO 00000KT 6000 // SCT001 BKN012 14/14 Q1015

TAF (pilot weather forecast)

Retrieved 2017/08/16 18:36 UTC (2 hours ago):

TAF YBRK 161710Z 1618/1718 VRB04KT 9999 MIFG FEW005 FM162300 33008KT 9999 SCT018 FM170100 33008KT CAVOK FM170700 03007KT CAVOK FM171000 32006KT CAVOK FM171400 VRB03KT 9999 MIFG FEW008 PROB30 1618/1623 0400 FG BKN001